createdAt,value
2023-11-13T00:00:57.416Z,100589.69
2023-11-13T00:02:59.087Z,100580.75
2023-11-13T00:05:00.670Z,100574.00
2023-11-13T00:07:02.367Z,100587.59
2023-11-13T00:09:05.163Z,100581.34
2023-11-13T00:11:06.886Z,100584.22
2023-11-13T00:13:08.384Z,100572.47
2023-11-13T00:15:10.786Z,100575.00
2023-11-13T00:17:12.569Z,100559.25
2023-11-13T00:19:14.120Z,100552.03
2023-11-13T00:21:16.971Z,100550.34
2023-11-13T00:23:18.625Z,100554.03
2023-11-13T00:25:20.192Z,100571.69
2023-11-13T00:27:21.795Z,100572.69
2023-11-13T00:29:23.345Z,100568.47
2023-11-13T00:31:25.205Z,100566.75
2023-11-13T00:33:27.078Z,100562.41
2023-11-13T00:35:28.501Z,100550.63
2023-11-13T00:37:30.068Z,100551.50
2023-11-13T00:39:33.234Z,100553.31
2023-11-13T00:41:34.992Z,100558.13
2023-11-13T00:43:36.525Z,100566.06
2023-11-13T00:45:38.286Z,100572.41
2023-11-13T00:47:39.829Z,100571.56
2023-11-13T00:49:41.450Z,100573.56
2023-11-13T00:51:42.894Z,100574.38
2023-11-13T00:53:44.731Z,100567.47
2023-11-13T00:55:46.318Z,100563.78
2023-11-13T00:57:48.003Z,100555.72
2023-11-13T00:59:49.568Z,100552.03
2023-11-13T01:01:52.085Z,100543.97
2023-11-13T01:03:54.308Z,100540.28
2023-11-13T01:05:55.895Z,100537.31
2023-11-13T01:07:57.596Z,100533.47
2023-11-13T01:09:59.077Z,100538.03
2023-11-13T01:12:00.787Z,100539.19
2023-11-13T01:14:02.308Z,100532.91
2023-11-13T01:16:06.062Z,100542.00
2023-11-13T01:18:07.876Z,100525.16
2023-11-13T01:20:09.833Z,100531.22
2023-11-13T01:22:11.603Z,100521.47
2023-11-13T01:24:13.287Z,100513.97
2023-11-13T01:26:15.472Z,100499.81
2023-11-13T01:28:17.665Z,100483.25
2023-11-13T01:30:19.768Z,100467.78
2023-11-13T01:32:21.386Z,100480.22
2023-11-13T01:34:22.991Z,100483.78
2023-11-13T01:36:24.679Z,100493.69
2023-11-13T01:38:28.058Z,100501.75
2023-11-13T01:40:29.742Z,100500.22
2023-11-13T01:42:31.445Z,100493.00
2023-11-13T01:44:33.159Z,100503.75
2023-11-13T01:46:35.219Z,100487.19
2023-11-13T01:48:36.961Z,100491.16
2023-11-13T01:50:39.372Z,100481.22
2023-11-13T01:52:42.652Z,100478.25
2023-11-13T01:54:44.466Z,100479.94
2023-11-13T01:56:46.940Z,100477.09
2023-11-13T01:58:49.473Z,100463.72
2023-11-13T02:02:59.904Z,100481.09
2023-11-13T02:05:03.151Z,100482.09
2023-11-13T02:07:05.700Z,100477.88
2023-11-13T02:09:11.247Z,100467.94
2023-11-13T02:11:13.294Z,100482.63
2023-11-13T02:13:15.957Z,100480.78
2023-11-13T02:15:17.926Z,100475.41
2023-11-13T02:17:19.886Z,100454.59
2023-11-13T02:19:21.628Z,100444.66
2023-11-13T02:21:23.148Z,100451.06
2023-11-13T02:23:24.786Z,100456.56
2023-11-13T02:25:26.970Z,100462.94
2023-11-13T02:27:30.365Z,100461.13
2023-11-13T02:29:31.921Z,100441.59
2023-11-13T02:31:33.541Z,100441.59
2023-11-13T02:33:35.153Z,100444.97
2023-11-13T02:35:36.750Z,100431.00
2023-11-13T02:37:38.307Z,100430.53
2023-11-13T02:39:40.010Z,100442.13
2023-11-13T02:41:41.516Z,100424.84
2023-11-13T02:43:43.129Z,100410.72
2023-11-13T02:45:45.040Z,100390.03
2023-11-13T02:47:46.628Z,100388.16
2023-11-13T02:51:54.776Z,100381.44
2023-11-13T02:53:56.823Z,100384.81
2023-11-13T02:55:58.404Z,100396.56
2023-11-13T02:58:00.058Z,100395.72
2023-11-13T03:00:01.976Z,100400.50
2023-11-13T03:02:03.730Z,100395.25
2023-11-13T03:04:05.597Z,100409.41
2023-11-13T03:06:07.531Z,100394.94
2023-11-13T03:08:09.759Z,100373.59
2023-11-13T03:10:11.932Z,100384.50
2023-11-13T03:14:20.479Z,100380.09
2023-11-13T03:16:22.322Z,100375.59
2023-11-13T03:18:23.983Z,100378.44
2023-11-13T03:20:25.712Z,100367.53
2023-11-13T03:22:27.248Z,100372.03
2023-11-13T03:24:30.017Z,100368.69
2023-11-13T03:26:31.755Z,100373.72
2023-11-13T03:28:33.415Z,100372.56
2023-11-13T03:30:37.315Z,100363.66
2023-11-13T03:32:38.945Z,100350.38
2023-11-13T03:34:42.010Z,100330.69
2023-11-13T03:36:43.657Z,100341.63
2023-11-13T03:38:45.259Z,100335.41
2023-11-13T03:40:46.851Z,100318.25
2023-11-13T03:42:48.497Z,100313.38
2023-11-13T03:44:49.983Z,100318.13
2023-11-13T03:46:52.401Z,100313.56
2023-11-13T03:48:54.082Z,100315.94
2023-11-13T03:50:55.725Z,100305.84
2023-11-13T03:52:57.435Z,100315.94
2023-11-13T03:54:59.233Z,100322.00
2023-11-13T03:57:00.828Z,100304.44
2023-11-13T03:59:02.643Z,100307.03
2023-11-13T04:01:04.472Z,100299.28
2023-11-13T04:03:06.485Z,100294.72
2023-11-13T04:05:08.639Z,100294.44
2023-11-13T04:07:10.457Z,100293.44
2023-11-13T04:09:12.056Z,100297.66
2023-11-13T04:13:21.207Z,100292.78
2023-11-13T04:15:22.847Z,100287.41
2023-11-13T04:17:24.588Z,100288.25
2023-11-13T04:19:27.234Z,100275.78
2023-11-13T04:21:32.651Z,100273.28
2023-11-13T04:23:34.242Z,100280.34
2023-11-13T04:25:36.230Z,100274.09
2023-11-13T04:27:37.894Z,100272.41
2023-11-13T04:29:39.344Z,100265.03
2023-11-13T04:31:40.925Z,100264.22
2023-11-13T04:35:48.953Z,100261.19
2023-11-13T04:37:50.628Z,100255.66
2023-11-13T04:39:52.210Z,100247.59
2023-11-13T04:41:53.763Z,100245.03
2023-11-13T04:43:55.380Z,100241.81
2023-11-13T04:45:57.133Z,100242.69
2023-11-13T04:47:58.900Z,100239.13
2023-11-13T04:50:00.969Z,100226.69
2023-11-13T04:52:03.730Z,100241.81
2023-11-13T04:54:05.645Z,100246.91
2023-11-13T04:56:10.471Z,100245.22
2023-11-13T04:58:12.156Z,100249.25
2023-11-13T05:00:13.990Z,100260.00
2023-11-13T05:02:16.357Z,100263.56
2023-11-13T05:04:18.267Z,100251.94
2023-11-13T05:06:19.958Z,100249.25
2023-11-13T05:08:21.513Z,100242.22
2023-11-13T05:10:23.150Z,100235.16
2023-11-13T05:12:24.848Z,100231.94
2023-11-13T05:14:26.323Z,100213.75
2023-11-13T05:16:29.943Z,100200.31
2023-11-13T05:18:32.054Z,100199.00
2023-11-13T05:20:33.886Z,100189.94
2023-11-13T05:22:35.448Z,100194.31
2023-11-13T05:24:37.037Z,100183.69
2023-11-13T05:26:38.647Z,100195.97
2023-11-13T05:28:40.408Z,100197.00
2023-11-13T05:30:42.112Z,100202.53
2023-11-13T05:32:43.748Z,100203.53
2023-11-13T05:34:45.303Z,100208.25
2023-11-13T05:36:47.602Z,100209.25
2023-11-13T05:38:49.237Z,100207.91
2023-11-13T05:40:50.896Z,100202.38
2023-11-13T05:42:52.853Z,100194.63
2023-11-13T05:44:55.316Z,100201.22
2023-11-13T05:46:57.075Z,100207.41
2023-11-13T05:48:58.847Z,100212.63
2023-11-13T05:51:00.804Z,100214.50
2023-11-13T05:53:02.468Z,100222.88
2023-11-13T05:55:04.218Z,100231.81
2023-11-13T05:57:05.845Z,100231.13
2023-11-13T05:59:07.317Z,100223.03
2023-11-13T06:01:09.992Z,100224.91
2023-11-13T06:03:11.843Z,100224.56
2023-11-13T06:05:13.886Z,100226.09
2023-11-13T06:07:15.661Z,100224.09
2023-11-13T06:09:17.180Z,100225.78
2023-11-13T06:11:20.576Z,100233.03
2023-11-13T06:13:22.506Z,100224.94
2023-11-13T06:15:24.143Z,100223.09
2023-11-13T06:17:26.703Z,100210.63
2023-11-13T06:19:28.335Z,100199.88
2023-11-13T06:21:29.881Z,100192.28
2023-11-13T06:23:31.477Z,100187.59
2023-11-13T06:25:34.018Z,100177.66
2023-11-13T06:27:35.997Z,100165.59
2023-11-13T06:29:37.709Z,100175.19
2023-11-13T06:31:39.471Z,100167.78
2023-11-13T06:33:41.112Z,100161.38
2023-11-13T06:35:42.733Z,100169.44
2023-11-13T06:37:44.420Z,100171.47
2023-11-13T06:39:45.918Z,100170.47
2023-11-13T06:41:49.854Z,100178.88
2023-11-13T06:43:53.440Z,100178.69
2023-11-13T06:45:55.198Z,100185.94
2023-11-13T06:47:56.889Z,100184.94
2023-11-13T06:49:58.684Z,100192.00
2023-11-13T06:52:00.431Z,100195.84
2023-11-13T06:54:02.049Z,100199.91
2023-11-13T06:56:04.063Z,100201.44
2023-11-13T06:58:05.697Z,100202.94
2023-11-13T07:00:09.804Z,100196.75
2023-11-13T07:02:12.119Z,100209.66
2023-11-13T07:04:13.967Z,100215.06
2023-11-13T07:06:15.902Z,100215.19
2023-11-13T07:08:17.566Z,100207.28
2023-11-13T07:10:20.177Z,100206.47
2023-11-13T07:12:22.132Z,100198.53
2023-11-13T07:14:24.112Z,100192.84
2023-11-13T07:16:25.861Z,100185.59
2023-11-13T07:18:27.460Z,100196.06
2023-11-13T07:20:29.214Z,100190.66
2023-11-13T07:22:32.513Z,100190.50
2023-11-13T07:24:37.516Z,100197.06
2023-11-13T07:26:39.023Z,100199.91
2023-11-13T07:28:40.604Z,100198.38
2023-11-13T07:30:42.446Z,100196.69
2023-11-13T07:32:44.021Z,100200.56
2023-11-13T07:34:45.610Z,100186.25
2023-11-13T07:36:48.510Z,100198.69
2023-11-13T07:38:51.284Z,100180.56
2023-11-13T07:40:53.845Z,100177.69
2023-11-13T07:42:55.831Z,100190.16
2023-11-13T07:44:59.638Z,100194.69
2023-11-13T07:47:01.631Z,100192.00
2023-11-13T07:49:03.560Z,100199.22
2023-11-13T07:51:06.147Z,100194.84
2023-11-13T07:53:09.502Z,100202.09
2023-11-13T07:55:14.823Z,100196.00
2023-11-13T07:57:16.444Z,100209.28
2023-11-13T07:59:17.919Z,100206.59
2023-11-13T08:01:20.461Z,100209.16
2023-11-13T08:03:22.658Z,100205.28
2023-11-13T08:05:26.341Z,100210.50
2023-11-13T08:07:27.847Z,100200.44
2023-11-13T08:09:29.480Z,100195.03
2023-11-13T08:11:31.140Z,100174.34
2023-11-13T08:13:33.303Z,100186.13
2023-11-13T08:15:35.437Z,100188.81
2023-11-13T08:17:37.131Z,100185.28
2023-11-13T08:19:38.636Z,100187.97
2023-11-13T08:21:40.273Z,100182.59
2023-11-13T08:23:41.787Z,100176.22
2023-11-13T08:25:47.478Z,100177.72
2023-11-13T08:27:52.770Z,100175.88
2023-11-13T08:29:54.818Z,100177.56
2023-11-13T08:31:56.675Z,100185.50
2023-11-13T08:33:58.295Z,100173.03
2023-11-13T08:36:01.207Z,100183.94
2023-11-13T08:38:03.608Z,100174.03
2023-11-13T08:40:05.986Z,100184.97
2023-11-13T08:42:08.328Z,100183.09
2023-11-13T08:44:09.813Z,100172.53
2023-11-13T08:46:12.505Z,100169.66
2023-11-13T08:48:14.107Z,100165.09
2023-11-13T08:50:16.306Z,100174.88
2023-11-13T08:52:21.370Z,100168.47
2023-11-13T08:54:22.915Z,100150.50
2023-11-13T08:56:24.399Z,100155.03
2023-11-13T08:58:27.429Z,100166.66
2023-11-13T09:00:41.975Z,100152.50
2023-11-13T09:02:44.304Z,100150.81
2023-11-13T09:04:45.817Z,100156.38
2023-11-13T09:06:47.282Z,100164.44
2023-11-13T09:08:50.666Z,100154.50
2023-11-13T09:10:52.115Z,100151.81
2023-11-13T09:12:57.011Z,100142.75
2023-11-13T09:14:58.435Z,100155.19
2023-11-13T09:17:11.154Z,100149.66
2023-11-13T09:19:12.812Z,100147.81
2023-11-13T09:21:16.029Z,100147.81
2023-11-13T09:23:18.486Z,100135.19
2023-11-13T09:25:20.372Z,100125.59
2023-11-13T09:27:21.923Z,100125.59
2023-11-13T09:29:24.188Z,100126.78
2023-11-13T09:31:25.716Z,100124.06
2023-11-13T09:33:29.503Z,100138.38
2023-11-13T09:35:31.522Z,100112.31
2023-11-13T09:37:33.225Z,100120.22
2023-11-13T09:39:40.167Z,100111.13
2023-11-13T09:41:46.242Z,100119.22
2023-11-13T09:43:47.927Z,100143.44
2023-11-13T09:45:53.453Z,100141.56
2023-11-13T09:48:00.558Z,100131.81
2023-11-13T09:50:16.649Z,100148.81
2023-11-13T09:52:19.716Z,100148.81
2023-11-13T09:54:22.117Z,100147.94
2023-11-13T09:56:24.647Z,100149.66
2023-11-13T09:58:27.234Z,100161.28
2023-11-13T10:00:33.375Z,100162.94
2023-11-13T10:02:35.252Z,100162.09
2023-11-13T10:04:37.346Z,100156.53
2023-11-13T10:06:41.002Z,100161.75
2023-11-13T10:08:43.396Z,100148.97
2023-11-13T10:10:45.366Z,100141.91
2023-11-13T10:12:46.952Z,100146.47
2023-11-13T10:15:01.161Z,100142.25
2023-11-13T10:17:02.779Z,100135.34
2023-11-13T10:19:14.600Z,100122.03
2023-11-13T10:21:32.540Z,100136.34
2023-11-13T10:23:36.145Z,100144.25
2023-11-13T10:25:47.054Z,100143.25
2023-11-13T10:28:02.643Z,100147.81
2023-11-13T10:30:05.001Z,100149.47
2023-11-13T10:32:06.809Z,100149.47
2023-11-13T10:34:10.715Z,100129.97
2023-11-13T10:36:18.689Z,100135.50
2023-11-13T10:38:25.659Z,100135.84
2023-11-13T10:40:28.239Z,100127.94
2023-11-13T10:42:29.699Z,100138.72
2023-11-13T10:44:38.008Z,100134.16
2023-11-13T10:46:40.402Z,100142.75
2023-11-13T10:48:43.805Z,100139.75
2023-11-13T10:50:46.049Z,100142.44
2023-11-13T10:52:49.132Z,100128.81
2023-11-13T10:54:55.099Z,100138.56
2023-11-13T10:56:57.194Z,100135.88
2023-11-13T10:58:59.177Z,100125.09
2023-11-13T11:01:01.709Z,100124.41
2023-11-13T11:03:06.990Z,100127.09
2023-11-13T11:05:12.757Z,100128.81
2023-11-13T11:07:15.315Z,100138.38
2023-11-13T11:09:19.337Z,100132.00
2023-11-13T11:11:23.251Z,100125.63
2023-11-13T11:13:25.024Z,100122.56
2023-11-13T11:15:44.454Z,100120.75
2023-11-13T11:17:49.112Z,100113.50
2023-11-13T11:19:54.564Z,100114.50
2023-11-13T11:22:01.502Z,100110.97
2023-11-13T11:24:05.782Z,100110.13
2023-11-13T11:28:44.105Z,100089.44
2023-11-13T11:30:48.047Z,100081.19
2023-11-13T11:32:56.283Z,100085.41
2023-11-13T11:35:05.421Z,100082.53
2023-11-13T11:37:09.932Z,100075.34
2023-11-13T11:39:13.120Z,100072.66
2023-11-13T11:41:38.233Z,100067.09
2023-11-13T11:43:41.960Z,100074.34
2023-11-13T11:45:50.258Z,100077.03
2023-11-13T11:47:54.951Z,100079.84
2023-11-13T11:49:57.821Z,100079.84
2023-11-13T11:52:10.243Z,100074.34
2023-11-13T11:54:12.310Z,100075.00
2023-11-13T11:56:13.860Z,100082.75
2023-11-13T11:58:16.423Z,100062.06
2023-11-13T12:00:21.906Z,100079.88
2023-11-13T12:02:24.298Z,100063.56
2023-11-13T12:04:27.152Z,100054.84
2023-11-13T12:06:30.926Z,100059.34
2023-11-13T12:08:32.873Z,100057.69
2023-11-13T12:10:35.095Z,100036.31
2023-11-13T12:12:39.917Z,100049.94
2023-11-13T12:14:42.278Z,100045.38
2023-11-13T12:16:44.191Z,100047.06
2023-11-13T12:18:45.679Z,100042.38
2023-11-13T12:20:47.273Z,100044.88
2023-11-13T12:22:48.868Z,100033.13
2023-11-13T12:24:52.050Z,100030.25
2023-11-13T12:26:57.473Z,100030.25
2023-11-13T12:28:59.195Z,100033.81
2023-11-13T12:31:14.832Z,100032.94
2023-11-13T12:33:16.472Z,100037.69
2023-11-13T12:35:18.488Z,100044.06
2023-11-13T12:37:20.749Z,100052.13
2023-11-13T12:39:24.074Z,100045.91
2023-11-13T12:41:25.928Z,100047.59
2023-11-13T12:43:28.564Z,100052.66
2023-11-13T12:45:30.268Z,100048.09
2023-11-13T12:47:31.778Z,100043.56
2023-11-13T12:49:33.403Z,100043.38
2023-11-13T12:51:36.012Z,100038.00
2023-11-13T12:53:37.583Z,100036.13
2023-11-13T12:55:44.171Z,100023.84
2023-11-13T12:57:52.379Z,100024.88
2023-11-13T12:59:53.850Z,100015.78
2023-11-13T13:01:56.103Z,100018.28
2023-11-13T13:03:57.711Z,100029.75
2023-11-13T13:06:00.310Z,100029.56
2023-11-13T13:08:02.785Z,100022.34
2023-11-13T13:10:07.719Z,100018.47
2023-11-13T13:12:12.081Z,100035.31
2023-11-13T13:14:18.326Z,100026.38
2023-11-13T13:16:20.151Z,100034.44
2023-11-13T13:18:24.084Z,100025.53
2023-11-13T13:20:33.959Z,99988.03
2023-11-13T13:22:37.285Z,99997.13
2023-11-13T13:24:41.424Z,100003.31
2023-11-13T13:26:42.992Z,100007.69
2023-11-13T13:28:44.608Z,100011.06
2023-11-13T13:30:46.187Z,100011.91
2023-11-13T13:32:48.066Z,99999.94
2023-11-13T13:34:49.904Z,99995.41
2023-11-13T13:36:52.249Z,100010.56
2023-11-13T13:38:53.809Z,100005.19
2023-11-13T13:40:55.349Z,100012.41
2023-11-13T13:43:00.690Z,100021.66
2023-11-13T13:45:02.381Z,100020.66
2023-11-13T13:47:04.408Z,100027.88
2023-11-13T13:49:07.015Z,100026.88
2023-11-13T13:51:09.071Z,100033.13
2023-11-13T13:53:15.616Z,100018.47
2023-11-13T13:55:17.302Z,100031.75
2023-11-13T13:57:18.950Z,100025.19
2023-11-13T13:59:23.331Z,100041.34
2023-11-13T14:01:24.890Z,100049.25
2023-11-13T14:03:28.271Z,100061.72
2023-11-13T14:05:30.302Z,100065.41
2023-11-13T14:07:32.005Z,100056.50
2023-11-13T14:09:34.424Z,100058.50
2023-11-13T14:11:44.190Z,100052.97
2023-11-13T14:13:48.713Z,100056.50
2023-11-13T14:16:03.542Z,100064.41
2023-11-13T14:18:12.992Z,100056.81
2023-11-13T14:20:17.701Z,100058.50
2023-11-13T14:22:22.879Z,100054.81
2023-11-13T14:24:26.807Z,100059.19
2023-11-13T14:26:28.383Z,100058.31
2023-11-13T14:28:31.822Z,100052.94
2023-11-13T14:30:33.486Z,100056.66
2023-11-13T14:32:35.698Z,100058.50
2023-11-13T14:34:37.517Z,100058.50
2023-11-13T14:36:39.060Z,100063.06
2023-11-13T14:38:40.878Z,100066.59
2023-11-13T14:40:43.047Z,100066.41
2023-11-13T14:42:45.661Z,100061.88
2023-11-13T14:44:50.306Z,100062.72
2023-11-13T14:46:53.739Z,100060.00
2023-11-13T14:48:57.211Z,100059.19
2023-11-13T14:50:59.219Z,100045.03
2023-11-13T14:53:00.719Z,100064.75
2023-11-13T14:55:02.217Z,100064.06
2023-11-13T14:57:06.694Z,100068.59
2023-11-13T14:59:08.414Z,100074.84
2023-11-13T15:01:10.305Z,100080.06
2023-11-13T15:03:11.991Z,100070.97
2023-11-13T15:05:13.490Z,100082.44
2023-11-13T15:07:16.946Z,100093.03
2023-11-13T15:09:18.572Z,100094.72
2023-11-13T15:11:20.605Z,100092.00
2023-11-13T15:13:22.231Z,100092.00
2023-11-13T15:15:23.812Z,100097.72
2023-11-13T15:17:25.286Z,100083.44
2023-11-13T15:19:27.046Z,100084.63
2023-11-13T15:21:28.929Z,100093.53
2023-11-13T15:23:39.228Z,100092.50
2023-11-13T15:25:49.473Z,100090.66
2023-11-13T15:27:51.423Z,100106.66
2023-11-13T15:29:52.914Z,100113.56
2023-11-13T15:31:54.522Z,100112.69
2023-11-13T15:33:56.011Z,100116.44
2023-11-13T15:35:57.658Z,100118.44
2023-11-13T15:37:59.190Z,100116.75
2023-11-13T15:40:01.148Z,100130.22
2023-11-13T15:42:03.300Z,100142.88
2023-11-13T15:44:05.096Z,100141.19
2023-11-13T15:46:09.530Z,100139.31
2023-11-13T15:48:11.142Z,100140.16
2023-11-13T15:50:17.291Z,100139.13
2023-11-13T15:52:19.092Z,100143.38
2023-11-13T15:54:20.709Z,100178.03
2023-11-13T15:56:22.219Z,100205.81
2023-11-13T15:58:23.796Z,100206.84
2023-11-13T16:00:25.555Z,100217.75
2023-11-13T16:02:27.213Z,100210.72
2023-11-13T16:04:28.895Z,100219.81
2023-11-13T16:06:30.334Z,100213.72
2023-11-13T16:08:31.801Z,100221.81
2023-11-13T16:10:33.828Z,100236.97
2023-11-13T16:12:35.810Z,100262.91
2023-11-13T16:14:37.379Z,100257.50
2023-11-13T16:16:39.898Z,100260.84
2023-11-13T16:18:41.681Z,100268.81
2023-11-13T16:20:43.680Z,100265.94
2023-11-13T16:22:46.470Z,100257.84
2023-11-13T16:24:49.871Z,100257.84
2023-11-13T16:26:53.787Z,100254.28
2023-11-13T16:28:56.322Z,100261.72
2023-11-13T16:30:57.869Z,100268.94
2023-11-13T16:33:03.061Z,100299.59
2023-11-13T16:35:05.728Z,100285.97
2023-11-13T16:37:09.778Z,100296.56
2023-11-13T16:39:13.927Z,100305.34
2023-11-13T16:41:15.976Z,100304.34
2023-11-13T16:43:17.669Z,100298.09
2023-11-13T16:45:21.779Z,100307.84
2023-11-13T16:47:23.452Z,100307.84
2023-11-13T16:49:25.030Z,100303.47
2023-11-13T16:51:27.053Z,100311.56
2023-11-13T16:53:29.412Z,100310.03
2023-11-13T16:55:37.279Z,100311.03
2023-11-13T16:57:39.020Z,100300.25
2023-11-13T16:59:40.499Z,100307.34
2023-11-13T17:01:42.621Z,100303.66
2023-11-13T17:03:44.666Z,100305.34
2023-11-13T17:05:51.583Z,100307.84
2023-11-13T17:07:55.723Z,100309.38
2023-11-13T17:09:57.197Z,100313.94
2023-11-13T17:12:00.535Z,100327.41
2023-11-13T17:14:03.131Z,100322.16
2023-11-13T17:16:05.832Z,100330.25
2023-11-13T17:18:07.309Z,100335.81
2023-11-13T17:20:11.425Z,100345.56
2023-11-13T17:22:13.244Z,100347.44
2023-11-13T17:24:14.797Z,100358.22
2023-11-13T17:26:16.246Z,100357.19
2023-11-13T17:28:18.870Z,100364.13
2023-11-13T17:30:20.451Z,100374.91
2023-11-13T17:32:22.214Z,100374.72
2023-11-13T17:34:24.856Z,100374.72
2023-11-13T17:36:26.383Z,100377.59
2023-11-13T17:38:28.948Z,100374.22
2023-11-13T17:40:30.665Z,100383.28
2023-11-13T17:42:32.580Z,100373.69
2023-11-13T17:44:34.178Z,100379.91
2023-11-13T17:46:35.755Z,100383.47
2023-11-13T17:48:37.616Z,100387.84
2023-11-13T17:50:39.629Z,100395.75
2023-11-13T17:52:41.520Z,100400.97
2023-11-13T17:54:46.674Z,100402.66
2023-11-13T17:56:50.695Z,100404.38
2023-11-13T17:58:52.331Z,100399.16
2023-11-13T18:00:55.272Z,100400.16
2023-11-13T18:02:57.534Z,100394.91
2023-11-13T18:05:00.520Z,100395.06
2023-11-13T18:07:02.577Z,100396.06
2023-11-13T18:09:04.775Z,100396.25
2023-11-13T18:11:06.859Z,100391.53
2023-11-13T18:13:09.065Z,100396.59
2023-11-13T18:15:11.152Z,100391.19
2023-11-13T18:17:12.917Z,100393.75
2023-11-13T18:19:14.489Z,100390.19
2023-11-13T18:21:16.070Z,100392.06
2023-11-13T18:23:17.566Z,100386.69
2023-11-13T18:25:19.406Z,100395.75
2023-11-13T18:27:20.953Z,100387.00
2023-11-13T18:29:22.726Z,100388.00
2023-11-13T18:31:24.260Z,100388.84
2023-11-13T18:33:32.428Z,100402.16
2023-11-13T18:35:34.603Z,100405.69
2023-11-13T18:37:40.173Z,100409.06
2023-11-13T18:39:41.884Z,100416.97
2023-11-13T18:41:43.870Z,100415.97
2023-11-13T18:43:45.759Z,100423.22
2023-11-13T18:45:51.370Z,100436.69
2023-11-13T18:47:53.461Z,100433.31
2023-11-13T18:49:55.125Z,100430.78
2023-11-13T18:51:56.740Z,100427.22
2023-11-13T18:53:59.243Z,100416.78
2023-11-13T18:56:01.308Z,100426.41
2023-11-13T18:58:02.931Z,100421.00
2023-11-13T19:00:06.420Z,100421.69
2023-11-13T19:02:08.911Z,100425.06
2023-11-13T19:04:10.479Z,100423.22
2023-11-13T19:06:18.651Z,100423.06
2023-11-13T19:08:20.145Z,100416.84
2023-11-13T19:10:21.714Z,100415.97
2023-11-13T19:12:23.221Z,100412.44
2023-11-13T19:14:24.716Z,100419.84
2023-11-13T19:16:26.290Z,100414.63
2023-11-13T19:18:28.013Z,100418.31
2023-11-13T19:20:29.631Z,100416.44
2023-11-13T19:22:31.093Z,100422.53
2023-11-13T19:24:33.195Z,100439.38
2023-11-13T19:26:34.821Z,100442.09
2023-11-13T19:28:36.361Z,100444.59
2023-11-13T19:30:39.456Z,100455.38
2023-11-13T19:32:46.607Z,100455.38
2023-11-13T19:34:53.527Z,100458.94
2023-11-13T19:36:55.044Z,100455.56
2023-11-13T19:38:56.500Z,100463.81
2023-11-13T19:40:58.057Z,100467.50
2023-11-13T19:43:00.010Z,100472.03
2023-11-13T19:45:01.796Z,100490.88
2023-11-13T19:47:03.740Z,100497.97
2023-11-13T19:49:08.998Z,100497.13
2023-11-13T19:51:11.370Z,100499.66
2023-11-13T19:53:13.875Z,100502.34
2023-11-13T19:55:16.932Z,100511.44
2023-11-13T19:57:18.569Z,100504.38
2023-11-13T19:59:20.704Z,100507.06
2023-11-13T20:01:22.309Z,100503.69
2023-11-13T20:03:25.493Z,100514.59
2023-11-13T20:05:31.409Z,100521.88
2023-11-13T20:07:33.308Z,100520.88
2023-11-13T20:09:35.625Z,100518.16
2023-11-13T20:11:37.232Z,100530.63
2023-11-13T20:13:40.231Z,100542.09
2023-11-13T20:15:41.909Z,100545.47
2023-11-13T20:17:44.835Z,100547.34
2023-11-13T20:19:46.490Z,100552.72
2023-11-13T20:21:47.958Z,100560.81
2023-11-13T20:23:49.577Z,100558.25
2023-11-13T20:25:52.843Z,100569.03
2023-11-13T20:27:54.498Z,100566.50
2023-11-13T20:30:03.794Z,100567.31
2023-11-13T20:32:08.854Z,100575.41
2023-11-13T20:34:10.539Z,100561.81
2023-11-13T20:36:12.114Z,100562.47
2023-11-13T20:38:13.583Z,100567.72
2023-11-13T20:40:16.194Z,100565.16
2023-11-13T20:42:17.690Z,100570.41
2023-11-13T20:44:19.256Z,100559.78
2023-11-13T20:46:20.913Z,100560.81
2023-11-13T20:48:22.557Z,100558.25
2023-11-13T20:50:24.317Z,100566.50
2023-11-13T20:52:25.963Z,100566.66
2023-11-13T20:54:27.490Z,100578.28
2023-11-13T20:56:29.073Z,100565.66
2023-11-13T20:58:30.706Z,100570.03
2023-11-13T21:00:32.398Z,100572.59
2023-11-13T21:02:34.041Z,100575.28
2023-11-13T21:04:35.928Z,100569.03
2023-11-13T21:06:38.193Z,100577.97
2023-11-13T21:08:39.663Z,100574.41
2023-11-13T21:10:41.273Z,100579.97
2023-11-13T21:12:44.515Z,100580.97
2023-11-13T21:14:46.275Z,100586.53
2023-11-13T21:16:48.132Z,100582.97
2023-11-13T21:18:49.667Z,100578.44
2023-11-13T21:20:52.014Z,100588.22
2023-11-13T21:22:54.273Z,100580.81
2023-11-13T21:24:55.771Z,100580.81
2023-11-13T21:26:57.258Z,100582.66
2023-11-13T21:28:58.831Z,100598.66
2023-11-13T21:31:01.537Z,100594.28
2023-11-13T21:33:03.093Z,100599.81
2023-11-13T21:35:11.054Z,100603.50
2023-11-13T21:37:12.571Z,100606.38
2023-11-13T21:39:14.289Z,100612.75
2023-11-13T21:41:15.735Z,100614.63
2023-11-13T21:43:18.708Z,100620.84
2023-11-13T21:45:20.238Z,100629.63
2023-11-13T21:47:22.044Z,100630.31
2023-11-13T21:49:23.782Z,100624.94
2023-11-13T21:51:25.322Z,100626.59
2023-11-13T21:53:27.100Z,100606.06
2023-11-13T21:55:28.776Z,100615.16
2023-11-13T21:57:30.415Z,100618.00
2023-11-13T21:59:31.898Z,100630.63
2023-11-13T22:01:33.529Z,100639.53
2023-11-13T22:03:36.293Z,100641.41
2023-11-13T22:05:37.972Z,100649.47
2023-11-13T22:07:42.612Z,100654.88
2023-11-13T22:09:45.237Z,100646.78
2023-11-13T22:11:46.799Z,100647.50
2023-11-13T22:13:48.347Z,100648.31
2023-11-13T22:15:52.610Z,100655.41
2023-11-13T22:17:54.148Z,100660.97
2023-11-13T22:19:55.653Z,100659.25
2023-11-13T22:21:57.150Z,100652.34
2023-11-13T22:23:59.389Z,100644.44
2023-11-13T22:26:00.962Z,100657.19
2023-11-13T22:28:02.609Z,100672.38
2023-11-13T22:30:04.308Z,100676.06
2023-11-13T22:32:07.599Z,100670.50
2023-11-13T22:34:10.542Z,100672.91
2023-11-13T22:36:12.060Z,100671.03
2023-11-13T22:38:13.565Z,100663.78
2023-11-13T22:40:15.126Z,100658.56
2023-11-13T22:42:16.768Z,100655.72
2023-11-13T22:44:18.269Z,100669.34
2023-11-13T22:46:20.974Z,100654.16
2023-11-13T22:48:22.691Z,100648.78
2023-11-13T22:50:24.271Z,100659.88
2023-11-13T22:52:25.819Z,100666.09
2023-11-13T22:54:27.386Z,100675.06
2023-11-13T22:56:28.965Z,100669.66
2023-11-13T22:58:30.515Z,100685.50
2023-11-13T23:00:38.203Z,100678.28
2023-11-13T23:02:39.828Z,100680.81
2023-11-13T23:04:41.524Z,100676.44
2023-11-13T23:06:44.216Z,100672.03
2023-11-13T23:08:46.014Z,100673.03
2023-11-13T23:10:49.097Z,100678.59
2023-11-13T23:12:50.894Z,100671.66
2023-11-13T23:14:52.428Z,100677.06
2023-11-13T23:16:54.111Z,100676.22
2023-11-13T23:18:56.192Z,100694.06
2023-11-13T23:20:57.638Z,100697.44
2023-11-13T23:22:59.444Z,100715.31
2023-11-13T23:25:01.033Z,100708.06
2023-11-13T23:27:02.590Z,100701.84
2023-11-13T23:29:04.483Z,100699.97
2023-11-13T23:31:06.011Z,100705.38
2023-11-13T23:33:09.844Z,100704.38